sensor_id;sensor_type;location;lat;lon;timestamp;pressure;altitude;pressure_sealevel;temperature;humidity
43147;BME280;28752;48.266;7.402;2023-04-21T00:02:17;99000.69;;;5.79;84.42
43147;BME280;28752;48.266;7.402;2023-04-21T00:04:42;98994.00;;;5.75;84.07
43147;BME280;28752;48.266;7.402;2023-04-21T00:07:10;98997.16;;;5.57;84.80
43147;BME280;28752;48.266;7.402;2023-04-21T00:09:36;98988.56;;;5.55;84.90
43147;BME280;28752;48.266;7.402;2023-04-21T00:12:01;98995.63;;;5.55;85.41
43147;BME280;28752;48.266;7.402;2023-04-21T00:14:27;98983.00;;;5.37;85.08
43147;BME280;28752;48.266;7.402;2023-04-21T00:16:52;98975.88;;;5.39;84.97
43147;BME280;28752;48.266;7.402;2023-04-21T00:19:18;98976.56;;;5.41;85.51
43147;BME280;28752;48.266;7.402;2023-04-21T00:21:44;98972.28;;;5.40;85.53
43147;BME280;28752;48.266;7.402;2023-04-21T00:24:10;98984.69;;;5.38;85.73
43147;BME280;28752;48.266;7.402;2023-04-21T00:26:35;98984.81;;;5.37;85.74
43147;BME280;28752;48.266;7.402;2023-04-21T00:29:01;98978.75;;;5.36;85.72
43147;BME280;28752;48.266;7.402;2023-04-21T00:31:26;98984.69;;;5.38;84.69
43147;BME280;28752;48.266;7.402;2023-04-21T00:33:52;98980.38;;;5.37;84.49
43147;BME280;28752;48.266;7.402;2023-04-21T00:36:18;98980.75;;;5.44;84.65
43147;BME280;28752;48.266;7.402;2023-04-21T00:38:43;98973.13;;;5.41;85.07
43147;BME280;28752;48.266;7.402;2023-04-21T00:41:09;98975.25;;;5.36;85.75
43147;BME280;28752;48.266;7.402;2023-04-21T00:43:34;98976.97;;;5.25;86.04
43147;BME280;28752;48.266;7.402;2023-04-21T00:45:59;98978.00;;;5.34;85.17
43147;BME280;28752;48.266;7.402;2023-04-21T00:48:25;98979.19;;;5.41;84.24
43147;BME280;28752;48.266;7.402;2023-04-21T00:50:50;98972.28;;;5.40;83.83
43147;BME280;28752;48.266;7.402;2023-04-21T00:53:16;98969.88;;;5.37;83.50
43147;BME280;28752;48.266;7.402;2023-04-21T00:55:41;98973.88;;;5.20;83.79
43147;BME280;28752;48.266;7.402;2023-04-21T00:58:07;98977.31;;;5.21;83.90
43147;BME280;28752;48.266;7.402;2023-04-21T01:00:32;98982.44;;;5.22;83.78
43147;BME280;28752;48.266;7.402;2023-04-21T01:02:59;98978.66;;;5.15;83.92
43147;BME280;28752;48.266;7.402;2023-04-21T01:05:25;98971.50;;;5.17;84.40
43147;BME280;28752;48.266;7.402;2023-04-21T01:07:51;98968.28;;;5.13;84.26
43147;BME280;28752;48.266;7.402;2023-04-21T01:10:17;98967.69;;;5.10;83.71
43147;BME280;28752;48.266;7.402;2023-04-21T01:12:46;98960.53;;;5.01;84.00
43147;BME280;28752;48.266;7.402;2023-04-21T01:15:12;98969.03;;;4.93;84.88
43147;BME280;28752;48.266;7.402;2023-04-21T01:17:38;98955.09;;;4.92;85.05
43147;BME280;28752;48.266;7.402;2023-04-21T01:20:10;98967.09;;;4.95;84.95
43147;BME280;28752;48.266;7.402;2023-04-21T01:22:37;98969.72;;;4.95;85.17
43147;BME280;28752;48.266;7.402;2023-04-21T01:25:04;98966.91;;;4.87;84.44
43147;BME280;28752;48.266;7.402;2023-04-21T01:27:29;98963.06;;;4.79;84.75
43147;BME280;28752;48.266;7.402;2023-04-21T01:29:55;98961.41;;;4.67;85.29
43147;BME280;28752;48.266;7.402;2023-04-21T01:32:23;98967.63;;;4.66;86.06
43147;BME280;28752;48.266;7.402;2023-04-21T01:34:49;98969.28;;;4.78;85.05
43147;BME280;28752;48.266;7.402;2023-04-21T01:37:17;98959.03;;;4.75;84.53
43147;BME280;28752;48.266;7.402;2023-04-21T01:39:46;98959.88;;;4.76;84.44
43147;BME280;28752;48.266;7.402;2023-04-21T01:42:12;98958.81;;;4.78;83.85
43147;BME280;28752;48.266;7.402;2023-04-21T01:44:38;98955.34;;;4.67;85.03
43147;BME280;28752;48.266;7.402;2023-04-21T01:47:05;98960.34;;;4.70;85.80
43147;BME280;28752;48.266;7.402;2023-04-21T01:49:30;98957.00;;;4.56;86.26
43147;BME280;28752;48.266;7.402;2023-04-21T01:51:56;98953.56;;;4.67;85.97
43147;BME280;28752;48.266;7.402;2023-04-21T01:54:21;98955.59;;;4.63;85.85
43147;BME280;28752;48.266;7.402;2023-04-21T01:56:47;98946.66;;;4.66;85.16
43147;BME280;28752;48.266;7.402;2023-04-21T01:59:12;98953.31;;;4.59;85.54
43147;BME280;28752;48.266;7.402;2023-04-21T02:01:37;98949.16;;;4.68;84.68
43147;BME280;28752;48.266;7.402;2023-04-21T02:04:04;98958.78;;;4.67;84.57
43147;BME280;28752;48.266;7.402;2023-04-21T02:06:30;98962.59;;;4.63;84.46
43147;BME280;28752;48.266;7.402;2023-04-21T02:08:56;98968.69;;;4.63;83.90
43147;BME280;28752;48.266;7.402;2023-04-21T02:11:22;98970.94;;;4.57;84.25
43147;BME280;28752;48.266;7.402;2023-04-21T02:13:49;98966.28;;;4.49;84.87
43147;BME280;28752;48.266;7.402;2023-04-21T02:16:14;98972.63;;;4.58;84.14
43147;BME280;28752;48.266;7.402;2023-04-21T02:18:40;98972.28;;;4.51;84.00
43147;BME280;28752;48.266;7.402;2023-04-21T02:21:05;98976.06;;;4.47;84.37
43147;BME280;28752;48.266;7.402;2023-04-21T02:23:31;98975.56;;;4.31;85.44
43147;BME280;28752;48.266;7.402;2023-04-21T02:25:56;98965.13;;;4.42;84.88
43147;BME280;28752;48.266;7.402;2023-04-21T02:28:22;98968.56;;;4.42;85.28
43147;BME280;28752;48.266;7.402;2023-04-21T02:30:47;98964.88;;;4.45;85.07
43147;BME280;28752;48.266;7.402;2023-04-21T02:33:12;98971.66;;;4.36;84.51
43147;BME280;28752;48.266;7.402;2023-04-21T02:35:38;98967.47;;;4.34;84.93
43147;BME280;28752;48.266;7.402;2023-04-21T02:38:03;98967.72;;;3.84;87.78
43147;BME280;28752;48.266;7.402;2023-04-21T02:40:31;98968.19;;;4.13;86.39
43147;BME280;28752;48.266;7.402;2023-04-21T02:42:57;98969.81;;;4.03;87.25
43147;BME280;28752;48.266;7.402;2023-04-21T02:45:22;98974.19;;;4.02;86.30
43147;BME280;28752;48.266;7.402;2023-04-21T02:47:47;98987.47;;;4.12;84.89
43147;BME280;28752;48.266;7.402;2023-04-21T02:50:13;98981.00;;;3.94;86.17
43147;BME280;28752;48.266;7.402;2023-04-21T02:52:38;98979.84;;;4.09;85.04
43147;BME280;28752;48.266;7.402;2023-04-21T02:55:04;98973.84;;;3.96;85.52
43147;BME280;28752;48.266;7.402;2023-04-21T02:57:29;98983.09;;;3.88;85.70
43147;BME280;28752;48.266;7.402;2023-04-21T02:59:55;98978.84;;;3.63;87.09
43147;BME280;28752;48.266;7.402;2023-04-21T03:02:20;98976.31;;;3.86;85.54
43147;BME280;28752;48.266;7.402;2023-04-21T03:04:45;98996.81;;;3.92;85.04
43147;BME280;28752;48.266;7.402;2023-04-21T03:07:11;98985.38;;;3.93;84.98
43147;BME280;28752;48.266;7.402;2023-04-21T03:09:38;98989.56;;;3.96;84.74
43147;BME280;28752;48.266;7.402;2023-04-21T03:12:03;98988.38;;;4.00;84.23
43147;BME280;28752;48.266;7.402;2023-04-21T03:14:28;98990.50;;;3.59;85.76
43147;BME280;28752;48.266;7.402;2023-04-21T03:16:54;98985.69;;;3.77;85.68
43147;BME280;28752;48.266;7.402;2023-04-21T03:19:19;98982.84;;;3.80;85.26
43147;BME280;28752;48.266;7.402;2023-04-21T03:21:44;98985.22;;;3.83;84.94
43147;BME280;28752;48.266;7.402;2023-04-21T03:24:10;98982.63;;;3.83;84.41
43147;BME280;28752;48.266;7.402;2023-04-21T03:26:38;98978.66;;;3.78;84.16
43147;BME280;28752;48.266;7.402;2023-04-21T03:29:03;98985.44;;;3.45;85.38
43147;BME280;28752;48.266;7.402;2023-04-21T03:31:29;98984.81;;;3.65;85.40
43147;BME280;28752;48.266;7.402;2023-04-21T03:33:54;98996.31;;;3.63;85.61
43147;BME280;28752;48.266;7.402;2023-04-21T03:36:19;98984.81;;;3.65;84.60
43147;BME280;28752;48.266;7.402;2023-04-21T03:38:45;98986.09;;;3.60;84.21
43147;BME280;28752;48.266;7.402;2023-04-21T03:41:10;98984.91;;;3.64;83.77
43147;BME280;28752;48.266;7.402;2023-04-21T03:43:35;98980.72;;;3.61;83.79
43147;BME280;28752;48.266;7.402;2023-04-21T03:46:01;98983.09;;;3.53;83.45
43147;BME280;28752;48.266;7.402;2023-04-21T03:48:27;98985.16;;;3.61;83.71
43147;BME280;28752;48.266;7.402;2023-04-21T03:50:53;98985.00;;;3.51;83.79
43147;BME280;28752;48.266;7.402;2023-04-21T03:53:19;98992.50;;;3.55;83.54
43147;BME280;28752;48.266;7.402;2023-04-21T03:55:44;98988.94;;;3.56;83.14
43147;BME280;28752;48.266;7.402;2023-04-21T03:58:16;98982.97;;;3.54;82.87
43147;BME280;28752;48.266;7.402;2023-04-21T04:00:41;98986.03;;;3.48;83.73
43147;BME280;28752;48.266;7.402;2023-04-21T04:03:07;98983.66;;;3.81;83.38
43147;BME280;28752;48.266;7.402;2023-04-21T04:05:34;98979.97;;;3.48;83.46
43147;BME280;28752;48.266;7.402;2023-04-21T04:07:59;98976.81;;;3.55;82.26
43147;BME280;28752;48.266;7.402;2023-04-21T04:10:25;98969.44;;;3.36;83.44
43147;BME280;28752;48.266;7.402;2023-04-21T04:12:50;98973.88;;;3.23;84.67
43147;BME280;28752;48.266;7.402;2023-04-21T04:15:16;98976.81;;;3.31;84.44
43147;BME280;28752;48.266;7.402;2023-04-21T04:17:41;98974.78;;;3.35;83.82
43147;BME280;28752;48.266;7.402;2023-04-21T04:20:07;98980.63;;;3.38;83.72
43147;BME280;28752;48.266;7.402;2023-04-21T04:22:33;98978.00;;;3.38;84.09
43147;BME280;28752;48.266;7.402;2023-04-21T04:24:59;98980.69;;;3.50;82.52
43147;BME280;28752;48.266;7.402;2023-04-21T04:27:28;98983.59;;;2.97;84.89
43147;BME280;28752;48.266;7.402;2023-04-21T04:29:54;98973.66;;;3.26;84.11
43147;BME280;28752;48.266;7.402;2023-04-21T04:32:19;98974.41;;;3.28;84.27
43147;BME280;28752;48.266;7.402;2023-04-21T04:34:45;98979.69;;;3.40;82.96
43147;BME280;28752;48.266;7.402;2023-04-21T04:37:10;98981.47;;;3.39;83.45
43147;BME280;28752;48.266;7.402;2023-04-21T04:39:37;98978.22;;;3.35;84.10
43147;BME280;28752;48.266;7.402;2023-04-21T04:42:02;98979.41;;;3.31;83.53
43147;BME280;28752;48.266;7.402;2023-04-21T04:44:28;98981.72;;;3.23;84.30
43147;BME280;28752;48.266;7.402;2023-04-21T04:46:54;98985.69;;;3.29;84.38
43147;BME280;28752;48.266;7.402;2023-04-21T04:49:19;98983.63;;;3.21;84.43
43147;BME280;28752;48.266;7.402;2023-04-21T04:51:44;98981.59;;;3.37;84.04
43147;BME280;28752;48.266;7.402;2023-04-21T04:54:10;98979.53;;;3.54;82.84
43147;BME280;28752;48.266;7.402;2023-04-21T04:56:35;98984.09;;;3.63;82.45
43147;BME280;28752;48.266;7.402;2023-04-21T04:59:01;98986.75;;;3.50;82.87
43147;BME280;28752;48.266;7.402;2023-04-21T05:01:27;98986.41;;;3.55;83.40
43147;BME280;28752;48.266;7.402;2023-04-21T05:03:55;98985.44;;;3.45;84.15
43147;BME280;28752;48.266;7.402;2023-04-21T05:06:20;98988.56;;;3.85;83.70
43147;BME280;28752;48.266;7.402;2023-04-21T05:08:45;98990.84;;;4.25;82.28
43147;BME280;28752;48.266;7.402;2023-04-21T05:11:11;98996.34;;;4.79;79.67
43147;BME280;28752;48.266;7.402;2023-04-21T05:13:36;98993.72;;;5.02;78.86
43147;BME280;28752;48.266;7.402;2023-04-21T05:16:02;99001.09;;;6.16;74.85
43147;BME280;28752;48.266;7.402;2023-04-21T05:18:27;99008.16;;;6.58;72.31
43147;BME280;28752;48.266;7.402;2023-04-21T05:20:53;99000.00;;;6.61;71.14
43147;BME280;28752;48.266;7.402;2023-04-21T05:23:18;99002.25;;;6.45;71.59
43147;BME280;28752;48.266;7.402;2023-04-21T05:25:44;98999.19;;;6.61;71.29
43147;BME280;28752;48.266;7.402;2023-04-21T05:28:10;98999.69;;;6.54;72.12
43147;BME280;28752;48.266;7.402;2023-04-21T05:30:35;98994.69;;;7.33;69.84
43147;BME280;28752;48.266;7.402;2023-04-21T05:33:01;98994.63;;;7.93;67.71
43147;BME280;28752;48.266;7.402;2023-04-21T05:35:29;98989.00;;;8.25;66.51
43147;BME280;28752;48.266;7.402;2023-04-21T05:37:54;98998.19;;;8.78;65.23
43147;BME280;28752;48.266;7.402;2023-04-21T05:40:20;98999.69;;;8.91;64.32
43147;BME280;28752;48.266;7.402;2023-04-21T05:42:45;99005.81;;;9.19;62.91
43147;BME280;28752;48.266;7.402;2023-04-21T05:45:11;99002.56;;;9.25;62.91
43147;BME280;28752;48.266;7.402;2023-04-21T05:47:36;98998.41;;;8.95;64.06
43147;BME280;28752;48.266;7.402;2023-04-21T05:50:03;99005.28;;;9.61;62.67
43147;BME280;28752;48.266;7.402;2023-04-21T05:52:28;99001.34;;;9.83;61.59
43147;BME280;28752;48.266;7.402;2023-04-21T05:54:54;99003.06;;;9.56;61.38
43147;BME280;28752;48.266;7.402;2023-04-21T05:57:19;99002.41;;;9.72;61.62
43147;BME280;28752;48.266;7.402;2023-04-21T05:59:44;99003.50;;;10.06;60.28
43147;BME280;28752;48.266;7.402;2023-04-21T06:02:10;99002.00;;;10.03;60.64
43147;BME280;28752;48.266;7.402;2023-04-21T06:04:36;99000.09;;;10.13;60.88
43147;BME280;28752;48.266;7.402;2023-04-21T06:07:05;99009.44;;;10.44;60.10
43147;BME280;28752;48.266;7.402;2023-04-21T06:09:32;99015.75;;;10.69;58.64
43147;BME280;28752;48.266;7.402;2023-04-21T06:11:58;99002.34;;;11.72;56.21
43147;BME280;28752;48.266;7.402;2023-04-21T06:14:23;98998.88;;;12.54;54.00
43147;BME280;28752;48.266;7.402;2023-04-21T06:16:48;99013.75;;;12.88;54.05
43147;BME280;28752;48.266;7.402;2023-04-21T06:19:14;99006.97;;;12.77;53.91
43147;BME280;28752;48.266;7.402;2023-04-21T06:21:39;99008.63;;;12.78;53.42
43147;BME280;28752;48.266;7.402;2023-04-21T06:24:05;98996.84;;;12.65;53.18
43147;BME280;28752;48.266;7.402;2023-04-21T06:26:30;99003.25;;;13.43;51.83
43147;BME280;28752;48.266;7.402;2023-04-21T06:28:56;99006.81;;;14.96;49.82
43147;BME280;28752;48.266;7.402;2023-04-21T06:31:21;98989.97;;;16.26;47.25
43147;BME280;28752;48.266;7.402;2023-04-21T06:33:46;98991.56;;;17.87;43.53
43147;BME280;28752;48.266;7.402;2023-04-21T06:36:12;99001.84;;;18.77;41.71
43147;BME280;28752;48.266;7.402;2023-04-21T06:38:37;98995.59;;;19.10;40.68
43147;BME280;28752;48.266;7.402;2023-04-21T06:41:05;98989.31;;;19.37;39.78
43147;BME280;28752;48.266;7.402;2023-04-21T06:43:31;98986.56;;;20.39;39.54
43147;BME280;28752;48.266;7.402;2023-04-21T06:45:56;98972.97;;;20.96;37.05
43147;BME280;28752;48.266;7.402;2023-04-21T06:48:22;98970.66;;;20.81;36.49
43147;BME280;28752;48.266;7.402;2023-04-21T06:50:48;98973.78;;;21.34;36.35
43147;BME280;28752;48.266;7.402;2023-04-21T06:53:13;98969.03;;;20.99;36.21
43147;BME280;28752;48.266;7.402;2023-04-21T06:55:39;98969.38;;;21.21;36.60
43147;BME280;28752;48.266;7.402;2023-04-21T06:58:04;98968.41;;;22.18;34.63
43147;BME280;28752;48.266;7.402;2023-04-21T07:00:29;98967.44;;;22.00;35.58
43147;BME280;28752;48.266;7.402;2023-04-21T07:02:55;98971.22;;;22.23;35.34
43147;BME280;28752;48.266;7.402;2023-04-21T07:05:20;98969.41;;;21.93;35.38
43147;BME280;28752;48.266;7.402;2023-04-21T07:07:45;98976.63;;;22.82;34.84
43147;BME280;28752;48.266;7.402;2023-04-21T07:10:11;98957.19;;;23.21;34.56
43147;BME280;28752;48.266;7.402;2023-04-21T07:12:36;98959.31;;;23.76;33.48
43147;BME280;28752;48.266;7.402;2023-04-21T07:15:02;98967.50;;;22.60;34.55
43147;BME280;28752;48.266;7.402;2023-04-21T07:17:27;98949.53;;;22.18;34.63
43147;BME280;28752;48.266;7.402;2023-04-21T07:19:53;98949.66;;;22.11;35.50
43147;BME280;28752;48.266;7.402;2023-04-21T07:22:18;98954.88;;;21.82;35.15
43147;BME280;28752;48.266;7.402;2023-04-21T07:24:43;98945.97;;;21.94;34.98
43147;BME280;28752;48.266;7.402;2023-04-21T07:27:09;98938.41;;;21.60;35.45
43147;BME280;28752;48.266;7.402;2023-04-21T07:29:34;98937.97;;;21.45;35.67
43147;BME280;28752;48.266;7.402;2023-04-21T07:32:01;98938.63;;;21.59;36.04
43147;BME280;28752;48.266;7.402;2023-04-21T07:34:26;98933.13;;;21.54;36.77
43147;BME280;28752;48.266;7.402;2023-04-21T07:36:54;98934.09;;;19.86;38.50
43147;BME280;28752;48.266;7.402;2023-04-21T07:39:20;98940.03;;;18.45;40.66
43147;BME280;28752;48.266;7.402;2023-04-21T07:41:45;98935.72;;;17.77;43.49
43147;BME280;28752;48.266;7.402;2023-04-21T07:44:10;98926.44;;;16.92;45.43
43147;BME280;28752;48.266;7.402;2023-04-21T07:46:36;98941.72;;;16.69;47.46
43147;BME280;28752;48.266;7.402;2023-04-21T07:49:01;98935.16;;;16.37;47.15
43147;BME280;28752;48.266;7.402;2023-04-21T07:51:27;98941.53;;;14.91;51.61
43147;BME280;28752;48.266;7.402;2023-04-21T07:53:52;98938.72;;;15.51;51.81
43147;BME280;28752;48.266;7.402;2023-04-21T07:56:18;98943.56;;;15.62;50.94
43147;BME280;28752;48.266;7.402;2023-04-21T07:58:43;98939.75;;;14.62;51.77
43147;BME280;28752;48.266;7.402;2023-04-21T08:01:09;98933.44;;;13.87;54.82
43147;BME280;28752;48.266;7.402;2023-04-21T08:03:34;98935.84;;;14.35;55.63
43147;BME280;28752;48.266;7.402;2023-04-21T08:06:00;98933.38;;;14.63;53.41
43147;BME280;28752;48.266;7.402;2023-04-21T08:08:26;98933.53;;;15.06;53.89
43147;BME280;28752;48.266;7.402;2023-04-21T08:10:52;98941.09;;;14.88;53.82
43147;BME280;28752;48.266;7.402;2023-04-21T08:13:17;98941.53;;;14.32;54.85
43147;BME280;28752;48.266;7.402;2023-04-21T08:15:45;98936.16;;;13.79;55.30
43147;BME280;28752;48.266;7.402;2023-04-21T08:18:10;98932.81;;;13.30;56.72
43147;BME280;28752;48.266;7.402;2023-04-21T08:20:35;98933.16;;;13.27;57.81
43147;BME280;28752;48.266;7.402;2023-04-21T08:23:01;98939.78;;;12.52;59.21
43147;BME280;28752;48.266;7.402;2023-04-21T08:25:26;98934.81;;;13.28;59.74
43147;BME280;28752;48.266;7.402;2023-04-21T08:27:51;98934.63;;;13.61;58.16
43147;BME280;28752;48.266;7.402;2023-04-21T08:30:17;98931.97;;;13.61;57.81
43147;BME280;28752;48.266;7.402;2023-04-21T08:32:43;98917.06;;;13.52;57.10
43147;BME280;28752;48.266;7.402;2023-04-21T08:35:08;98919.31;;;13.09;58.41
43147;BME280;28752;48.266;7.402;2023-04-21T08:37:37;98916.06;;;13.76;57.12
43147;BME280;28752;48.266;7.402;2023-04-21T08:40:04;98929.66;;;13.58;58.40
43147;BME280;28752;48.266;7.402;2023-04-21T08:42:29;98925.88;;;13.53;58.93
43147;BME280;28752;48.266;7.402;2023-04-21T08:44:54;98919.53;;;12.99;60.16
43147;BME280;28752;48.266;7.402;2023-04-21T08:47:20;98921.81;;;13.10;61.09
43147;BME280;28752;48.266;7.402;2023-04-21T08:49:49;98918.25;;;12.87;60.94
43147;BME280;28752;48.266;7.402;2023-04-21T08:52:15;98921.13;;;12.77;60.87
43147;BME280;28752;48.266;7.402;2023-04-21T08:54:41;98916.66;;;12.69;61.71
43147;BME280;28752;48.266;7.402;2023-04-21T08:57:07;98918.72;;;12.51;61.88
43147;BME280;28752;48.266;7.402;2023-04-21T08:59:32;98917.81;;;12.75;60.27
43147;BME280;28752;48.266;7.402;2023-04-21T09:02:12;98933.97;;;12.65;61.22
43147;BME280;28752;48.266;7.402;2023-04-21T09:04:49;98925.25;;;12.79;60.97
43147;BME280;28752;48.266;7.402;2023-04-21T09:07:35;98915.88;;;13.00;61.38
43147;BME280;28752;48.266;7.402;2023-04-21T09:10:01;98922.69;;;13.03;60.54
43147;BME280;28752;48.266;7.402;2023-04-21T09:12:27;98906.31;;;13.14;59.13
43147;BME280;28752;48.266;7.402;2023-04-21T09:14:53;98901.44;;;12.55;60.37
43147;BME280;28752;48.266;7.402;2023-04-21T09:17:21;98900.97;;;12.51;61.32
43147;BME280;28752;48.266;7.402;2023-04-21T09:19:51;98899.31;;;12.50;61.98
43147;BME280;28752;48.266;7.402;2023-04-21T09:22:19;98888.31;;;12.61;60.01
43147;BME280;28752;48.266;7.402;2023-04-21T09:24:46;98891.81;;;12.62;61.85
43147;BME280;28752;48.266;7.402;2023-04-21T09:27:11;98887.25;;;13.10;59.94
43147;BME280;28752;48.266;7.402;2023-04-21T09:29:37;98894.75;;;13.38;59.19
43147;BME280;28752;48.266;7.402;2023-04-21T09:32:02;98896.59;;;13.38;59.81
43147;BME280;28752;48.266;7.402;2023-04-21T09:34:27;98890.91;;;13.64;58.42
43147;BME280;28752;48.266;7.402;2023-04-21T09:37:00;98893.78;;;13.92;56.79
43147;BME280;28752;48.266;7.402;2023-04-21T09:39:28;98889.66;;;13.52;56.02
43147;BME280;28752;48.266;7.402;2023-04-21T09:41:54;98888.25;;;14.17;56.00
43147;BME280;28752;48.266;7.402;2023-04-21T09:44:19;98891.56;;;14.34;54.84
43147;BME280;28752;48.266;7.402;2023-04-21T09:46:48;98892.03;;;14.67;53.73
43147;BME280;28752;48.266;7.402;2023-04-21T09:49:16;98888.28;;;14.98;53.93
43147;BME280;28752;48.266;7.402;2023-04-21T09:51:42;98893.38;;;15.51;53.19
43147;BME280;28752;48.266;7.402;2023-04-21T09:54:16;98900.78;;;14.61;51.68
43147;BME280;28752;48.266;7.402;2023-04-21T09:56:42;98899.09;;;14.90;53.50
43147;BME280;28752;48.266;7.402;2023-04-21T09:59:16;98895.25;;;15.57;51.36
43147;BME280;28752;48.266;7.402;2023-04-21T10:01:45;98899.72;;;15.93;50.44
43147;BME280;28752;48.266;7.402;2023-04-21T10:04:13;98898.41;;;15.83;46.96
43147;BME280;28752;48.266;7.402;2023-04-21T10:06:39;98895.72;;;15.83;46.15
43147;BME280;28752;48.266;7.402;2023-04-21T10:09:07;98885.19;;;16.03;46.59
43147;BME280;28752;48.266;7.402;2023-04-21T10:11:34;98888.66;;;15.32;45.13
43147;BME280;28752;48.266;7.402;2023-04-21T10:14:02;98882.00;;;15.64;46.80
43147;BME280;28752;48.266;7.402;2023-04-21T10:16:28;98889.28;;;15.77;46.98
43147;BME280;28752;48.266;7.402;2023-04-21T10:18:53;98870.53;;;15.92;48.49
43147;BME280;28752;48.266;7.402;2023-04-21T10:21:20;98874.88;;;15.93;48.19
43147;BME280;28752;48.266;7.402;2023-04-21T10:23:47;98876.59;;;15.57;45.93
43147;BME280;28752;48.266;7.402;2023-04-21T10:26:23;98871.22;;;15.29;45.44
43147;BME280;28752;48.266;7.402;2023-04-21T10:29:00;98856.28;;;15.78;46.01
43147;BME280;28752;48.266;7.402;2023-04-21T10:31:31;98847.53;;;16.26;47.35
43147;BME280;28752;48.266;7.402;2023-04-21T10:39:31;98863.06;;;16.09;45.55
43147;BME280;28752;48.266;7.402;2023-04-21T10:42:19;98857.88;;;16.01;46.16
43147;BME280;28752;48.266;7.402;2023-04-21T10:45:13;98860.44;;;15.87;45.33
43147;BME280;28752;48.266;7.402;2023-04-21T10:47:44;98852.66;;;15.92;46.82
43147;BME280;28752;48.266;7.402;2023-04-21T10:52:37;98854.81;;;16.39;46.48
43147;BME280;28752;48.266;7.402;2023-04-21T10:55:09;98854.13;;;16.23;46.34
43147;BME280;28752;48.266;7.402;2023-04-21T10:57:37;98853.22;;;16.44;47.40
43147;BME280;28752;48.266;7.402;2023-04-21T11:00:05;98836.81;;;16.54;47.28
43147;BME280;28752;48.266;7.402;2023-04-21T11:02:31;98848.63;;;16.03;45.91
43147;BME280;28752;48.266;7.402;2023-04-21T11:04:57;98838.75;;;15.97;46.47
43147;BME280;28752;48.266;7.402;2023-04-21T11:07:24;98837.63;;;16.13;45.82
43147;BME280;28752;48.266;7.402;2023-04-21T11:10:00;98823.75;;;16.86;44.96
43147;BME280;28752;48.266;7.402;2023-04-21T11:12:28;98829.66;;;16.68;43.98
43147;BME280;28752;48.266;7.402;2023-04-21T11:14:54;98838.06;;;16.65;44.09
43147;BME280;28752;48.266;7.402;2023-04-21T11:17:20;98826.13;;;17.29;44.19
43147;BME280;28752;48.266;7.402;2023-04-21T11:19:54;98817.34;;;16.80;43.36
43147;BME280;28752;48.266;7.402;2023-04-21T11:22:22;98817.28;;;17.22;44.35
43147;BME280;28752;48.266;7.402;2023-04-21T11:24:49;98817.91;;;17.84;44.65
43147;BME280;28752;48.266;7.402;2023-04-21T11:27:15;98809.69;;;17.72;42.86
43147;BME280;28752;48.266;7.402;2023-04-21T11:29:45;98818.53;;;17.66;42.82
43147;BME280;28752;48.266;7.402;2023-04-21T11:32:11;98814.22;;;17.45;42.89
43147;BME280;28752;48.266;7.402;2023-04-21T11:34:37;98818.31;;;17.54;43.41
43147;BME280;28752;48.266;7.402;2023-04-21T11:37:06;98812.97;;;17.81;45.80
43147;BME280;28752;48.266;7.402;2023-04-21T11:39:31;98817.91;;;17.44;44.40
43147;BME280;28752;48.266;7.402;2023-04-21T11:41:57;98818.34;;;17.48;46.36
43147;BME280;28752;48.266;7.402;2023-04-21T11:44:37;98819.13;;;17.35;45.88
43147;BME280;28752;48.266;7.402;2023-04-21T11:47:15;98799.56;;;17.08;44.50
43147;BME280;28752;48.266;7.402;2023-04-21T11:49:55;98783.16;;;16.56;45.36
43147;BME280;28752;48.266;7.402;2023-04-21T11:52:24;98779.00;;;16.05;47.09
43147;BME280;28752;48.266;7.402;2023-04-21T11:55:01;98784.00;;;16.14;46.77
43147;BME280;28752;48.266;7.402;2023-04-21T11:57:28;98786.53;;;15.88;47.72
43147;BME280;28752;48.266;7.402;2023-04-21T11:59:57;98784.59;;;16.10;47.81
43147;BME280;28752;48.266;7.402;2023-04-21T12:02:24;98796.44;;;16.36;47.61
43147;BME280;28752;48.266;7.402;2023-04-21T12:05:12;98791.22;;;16.14;47.40
43147;BME280;28752;48.266;7.402;2023-04-21T12:07:42;98791.66;;;15.89;47.47
43147;BME280;28752;48.266;7.402;2023-04-21T12:10:27;98794.16;;;16.32;48.35
43147;BME280;28752;48.266;7.402;2023-04-21T12:12:55;98788.16;;;16.79;47.06
43147;BME280;28752;48.266;7.402;2023-04-21T12:15:21;98782.75;;;16.59;46.49
43147;BME280;28752;48.266;7.402;2023-04-21T12:17:51;98786.31;;;16.79;46.96
43147;BME280;28752;48.266;7.402;2023-04-21T12:20:18;98787.66;;;17.30;47.27
43147;BME280;28752;48.266;7.402;2023-04-21T12:22:45;98796.94;;;17.48;47.18
43147;BME280;28752;48.266;7.402;2023-04-21T12:25:11;98801.25;;;17.55;46.47
43147;BME280;28752;48.266;7.402;2023-04-21T12:27:36;98799.56;;;17.81;46.29
43147;BME280;28752;48.266;7.402;2023-04-21T12:30:02;98800.38;;;18.02;44.95
43147;BME280;28752;48.266;7.402;2023-04-21T12:32:29;98795.22;;;18.14;44.19
43147;BME280;28752;48.266;7.402;2023-04-21T12:34:54;98795.34;;;18.39;44.15
43147;BME280;28752;48.266;7.402;2023-04-21T12:37:20;98801.63;;;18.64;44.94
43147;BME280;28752;48.266;7.402;2023-04-21T12:39:45;98805.34;;;18.63;43.71
43147;BME280;28752;48.266;7.402;2023-04-21T12:42:11;98805.88;;;18.27;44.00
43147;BME280;28752;48.266;7.402;2023-04-21T12:44:37;98797.03;;;18.72;45.15
43147;BME280;28752;48.266;7.402;2023-04-21T12:47:02;98798.63;;;18.79;46.19
43147;BME280;28752;48.266;7.402;2023-04-21T12:49:28;98800.44;;;18.47;45.18
43147;BME280;28752;48.266;7.402;2023-04-21T12:51:53;98808.31;;;18.42;45.41
43147;BME280;28752;48.266;7.402;2023-04-21T12:54:19;98808.91;;;18.44;46.61
43147;BME280;28752;48.266;7.402;2023-04-21T12:56:44;98806.41;;;18.49;45.97
43147;BME280;28752;48.266;7.402;2023-04-21T12:59:10;98802.84;;;18.03;46.91
43147;BME280;28752;48.266;7.402;2023-04-21T13:01:37;98794.19;;;18.67;46.70
43147;BME280;28752;48.266;7.402;2023-04-21T13:04:03;98787.72;;;18.88;46.67
43147;BME280;28752;48.266;7.402;2023-04-21T13:06:29;98802.41;;;18.72;46.78
43147;BME280;28752;48.266;7.402;2023-04-21T13:08:55;98786.72;;;18.75;46.23
43147;BME280;28752;48.266;7.402;2023-04-21T13:11:21;98793.38;;;18.66;46.46